sensor_id;sensor_type;location;lat;lon;timestamp;P1;durP1;ratioP1;P2;durP2;ratioP2
77888;SDS011;67082;41.704;44.768;2023-09-19T00:01:15;13.77;;;7.85;;
77888;SDS011;67082;41.704;44.768;2023-09-19T00:03:47;12.25;;;7.93;;
77888;SDS011;67082;41.704;44.768;2023-09-19T00:06:17;18.80;;;11.63;;
77888;SDS011;67082;41.704;44.768;2023-09-19T00:08:45;20.38;;;12.70;;
77888;SDS011;67082;41.704;44.768;2023-09-19T00:11:15;24.58;;;13.68;;
77888;SDS011;67082;41.704;44.768;2023-09-19T00:13:43;21.45;;;13.70;;
77888;SDS011;67082;41.704;44.768;2023-09-19T00:16:18;20.65;;;13.52;;
77888;SDS011;67082;41.704;44.768;2023-09-19T00:18:46;25.42;;;14.40;;
77888;SDS011;67082;41.704;44.768;2023-09-19T00:21:16;23.40;;;14.13;;
77888;SDS011;67082;41.704;44.768;2023-09-19T00:23:44;26.10;;;15.13;;
77888;SDS011;67082;41.704;44.768;2023-09-19T00:26:13;23.23;;;14.45;;
77888;SDS011;67082;41.704;44.768;2023-09-19T00:28:45;18.77;;;11.05;;
77888;SDS011;67082;41.704;44.768;2023-09-19T00:31:13;16.00;;;9.35;;
77888;SDS011;67082;41.704;44.768;2023-09-19T00:33:41;15.07;;;9.40;;
77888;SDS011;67082;41.704;44.768;2023-09-19T00:36:10;16.63;;;9.63;;
77888;SDS011;67082;41.704;44.768;2023-09-19T00:38:38;15.45;;;9.23;;
77888;SDS011;67082;41.704;44.768;2023-09-19T00:41:07;18.10;;;9.05;;
77888;SDS011;67082;41.704;44.768;2023-09-19T00:43:35;14.10;;;7.55;;
77888;SDS011;67082;41.704;44.768;2023-09-19T00:46:04;13.90;;;7.43;;
77888;SDS011;67082;41.704;44.768;2023-09-19T00:48:38;12.82;;;6.40;;
77888;SDS011;67082;41.704;44.768;2023-09-19T00:51:12;11.52;;;6.07;;
77888;SDS011;67082;41.704;44.768;2023-09-19T00:53:42;12.93;;;5.88;;
77888;SDS011;67082;41.704;44.768;2023-09-19T00:56:14;9.60;;;5.25;;
77888;SDS011;67082;41.704;44.768;2023-09-19T00:58:47;9.10;;;5.18;;
77888;SDS011;67082;41.704;44.768;2023-09-19T01:01:17;10.38;;;4.43;;
77888;SDS011;67082;41.704;44.768;2023-09-19T01:03:47;10.00;;;4.38;;
77888;SDS011;67082;41.704;44.768;2023-09-19T01:06:16;8.32;;;4.47;;
77888;SDS011;67082;41.704;44.768;2023-09-19T01:08:45;12.77;;;4.82;;
77888;SDS011;67082;41.704;44.768;2023-09-19T01:14:29;8.30;;;4.50;;
77888;SDS011;67082;41.704;44.768;2023-09-19T01:22:35;4.65;;;2.92;;
77888;SDS011;67082;41.704;44.768;2023-09-19T01:25:33;4.60;;;2.60;;
77888;SDS011;67082;41.704;44.768;2023-09-19T01:28:45;7.45;;;3.00;;
77888;SDS011;67082;41.704;44.768;2023-09-19T01:31:24;5.40;;;2.50;;
77888;SDS011;67082;41.704;44.768;2023-09-19T01:34:02;4.65;;;2.47;;
77888;SDS011;67082;41.704;44.768;2023-09-19T01:36:35;6.72;;;2.42;;
77888;SDS011;67082;41.704;44.768;2023-09-19T01:39:05;4.13;;;2.30;;
77888;SDS011;67082;41.704;44.768;2023-09-19T01:44:36;7.15;;;2.30;;
77888;SDS011;67082;41.704;44.768;2023-09-19T01:47:32;5.32;;;2.10;;
77888;SDS011;67082;41.704;44.768;2023-09-19T01:52:53;4.40;;;1.92;;
77888;SDS011;67082;41.704;44.768;2023-09-19T01:55:26;5.35;;;2.53;;
77888;SDS011;67082;41.704;44.768;2023-09-19T01:58:07;4.70;;;2.53;;
77888;SDS011;67082;41.704;44.768;2023-09-19T02:00:44;6.22;;;2.20;;
77888;SDS011;67082;41.704;44.768;2023-09-19T02:03:16;4.40;;;2.38;;
77888;SDS011;67082;41.704;44.768;2023-09-19T02:05:52;5.60;;;2.38;;
77888;SDS011;67082;41.704;44.768;2023-09-19T02:08:21;4.03;;;2.40;;
77888;SDS011;67082;41.704;44.768;2023-09-19T02:10:53;5.10;;;2.13;;
77888;SDS011;67082;41.704;44.768;2023-09-19T02:13:21;4.03;;;2.35;;
77888;SDS011;67082;41.704;44.768;2023-09-19T02:15:55;4.10;;;2.45;;
77888;SDS011;67082;41.704;44.768;2023-09-19T02:18:23;4.20;;;2.40;;
77888;SDS011;67082;41.704;44.768;2023-09-19T02:20:53;4.03;;;2.40;;
77888;SDS011;67082;41.704;44.768;2023-09-19T02:23:22;4.35;;;2.40;;
77888;SDS011;67082;41.704;44.768;2023-09-19T02:25:53;5.97;;;2.63;;
77888;SDS011;67082;41.704;44.768;2023-09-19T02:28:21;5.63;;;2.47;;
77888;SDS011;67082;41.704;44.768;2023-09-19T02:30:51;3.20;;;1.92;;
77888;SDS011;67082;41.704;44.768;2023-09-19T02:33:19;6.10;;;2.22;;
77888;SDS011;67082;41.704;44.768;2023-09-19T02:35:47;4.20;;;2.30;;
77888;SDS011;67082;41.704;44.768;2023-09-19T02:38:16;6.93;;;2.22;;
77888;SDS011;67082;41.704;44.768;2023-09-19T02:40:49;4.47;;;2.00;;
77888;SDS011;67082;41.704;44.768;2023-09-19T02:43:17;4.35;;;2.13;;
77888;SDS011;67082;41.704;44.768;2023-09-19T02:45:46;5.55;;;2.03;;
77888;SDS011;67082;41.704;44.768;2023-09-19T02:48:14;4.50;;;1.90;;
77888;SDS011;67082;41.704;44.768;2023-09-19T02:50:44;4.57;;;1.60;;
77888;SDS011;67082;41.704;44.768;2023-09-19T02:53:13;5.30;;;1.95;;
77888;SDS011;67082;41.704;44.768;2023-09-19T02:55:42;3.90;;;1.90;;
77888;SDS011;67082;41.704;44.768;2023-09-19T02:58:11;4.20;;;2.10;;
77888;SDS011;67082;41.704;44.768;2023-09-19T03:00:43;4.65;;;1.90;;
77888;SDS011;67082;41.704;44.768;2023-09-19T03:03:16;4.85;;;1.92;;
77888;SDS011;67082;41.704;44.768;2023-09-19T03:05:45;6.38;;;2.28;;
77888;SDS011;67082;41.704;44.768;2023-09-19T03:08:17;4.75;;;1.80;;
77888;SDS011;67082;41.704;44.768;2023-09-19T03:10:47;4.25;;;2.00;;
77888;SDS011;67082;41.704;44.768;2023-09-19T03:13:16;4.68;;;1.58;;
77888;SDS011;67082;41.704;44.768;2023-09-19T03:15:46;4.82;;;1.85;;
77888;SDS011;67082;41.704;44.768;2023-09-19T03:18:18;4.32;;;1.67;;
77888;SDS011;67082;41.704;44.768;2023-09-19T03:20:54;5.85;;;2.00;;
77888;SDS011;67082;41.704;44.768;2023-09-19T03:23:23;3.67;;;1.80;;
77888;SDS011;67082;41.704;44.768;2023-09-19T03:25:51;5.43;;;1.90;;
77888;SDS011;67082;41.704;44.768;2023-09-19T03:28:20;2.67;;;1.70;;
77888;SDS011;67082;41.704;44.768;2023-09-19T03:31:00;4.00;;;2.20;;
77888;SDS011;67082;41.704;44.768;2023-09-19T03:33:29;5.45;;;2.00;;
77888;SDS011;67082;41.704;44.768;2023-09-19T03:36:02;4.60;;;1.85;;
77888;SDS011;67082;41.704;44.768;2023-09-19T03:38:33;3.28;;;1.90;;
77888;SDS011;67082;41.704;44.768;2023-09-19T03:41:02;4.60;;;1.80;;
77888;SDS011;67082;41.704;44.768;2023-09-19T03:43:33;3.33;;;2.05;;
77888;SDS011;67082;41.704;44.768;2023-09-19T03:46:02;3.63;;;1.90;;
77888;SDS011;67082;41.704;44.768;2023-09-19T03:48:33;5.50;;;2.30;;
77888;SDS011;67082;41.704;44.768;2023-09-19T03:51:03;4.90;;;2.15;;
77888;SDS011;67082;41.704;44.768;2023-09-19T03:53:32;2.90;;;1.70;;
77888;SDS011;67082;41.704;44.768;2023-09-19T03:56:00;3.63;;;1.92;;
77888;SDS011;67082;41.704;44.768;2023-09-19T03:58:31;3.65;;;1.80;;
77888;SDS011;67082;41.704;44.768;2023-09-19T04:01:02;3.38;;;1.80;;
77888;SDS011;67082;41.704;44.768;2023-09-19T04:03:30;4.70;;;1.80;;
77888;SDS011;67082;41.704;44.768;2023-09-19T04:06:14;4.07;;;1.83;;
77888;SDS011;67082;41.704;44.768;2023-09-19T04:08:44;3.72;;;2.00;;
77888;SDS011;67082;41.704;44.768;2023-09-19T04:11:14;2.60;;;1.70;;
77888;SDS011;67082;41.704;44.768;2023-09-19T04:13:42;6.03;;;2.00;;
77888;SDS011;67082;41.704;44.768;2023-09-19T04:16:11;5.00;;;1.85;;
77888;SDS011;67082;41.704;44.768;2023-09-19T04:18:39;4.10;;;1.95;;
77888;SDS011;67082;41.704;44.768;2023-09-19T04:21:09;4.60;;;2.03;;
77888;SDS011;67082;41.704;44.768;2023-09-19T04:23:37;5.50;;;2.13;;
77888;SDS011;67082;41.704;44.768;2023-09-19T04:26:05;4.22;;;1.98;;
77888;SDS011;67082;41.704;44.768;2023-09-19T04:28:34;4.00;;;1.70;;
77888;SDS011;67082;41.704;44.768;2023-09-19T04:31:06;2.90;;;1.80;;
77888;SDS011;67082;41.704;44.768;2023-09-19T04:33:35;2.38;;;1.60;;
77888;SDS011;67082;41.704;44.768;2023-09-19T04:36:04;4.03;;;1.50;;
77888;SDS011;67082;41.704;44.768;2023-09-19T04:38:55;3.72;;;1.70;;
77888;SDS011;67082;41.704;44.768;2023-09-19T04:41:23;4.45;;;1.80;;
77888;SDS011;67082;41.704;44.768;2023-09-19T04:43:52;4.85;;;1.90;;
77888;SDS011;67082;41.704;44.768;2023-09-19T04:46:20;2.15;;;1.42;;
77888;SDS011;67082;41.704;44.768;2023-09-19T04:48:51;3.53;;;1.50;;
77888;SDS011;67082;41.704;44.768;2023-09-19T04:51:19;2.38;;;1.52;;
77888;SDS011;67082;41.704;44.768;2023-09-19T04:53:48;4.63;;;1.85;;
77888;SDS011;67082;41.704;44.768;2023-09-19T04:56:25;4.22;;;1.70;;
77888;SDS011;67082;41.704;44.768;2023-09-19T04:58:53;2.40;;;1.67;;
77888;SDS011;67082;41.704;44.768;2023-09-19T05:01:21;4.00;;;1.92;;
77888;SDS011;67082;41.704;44.768;2023-09-19T05:03:50;12.40;;;2.00;;
77888;SDS011;67082;41.704;44.768;2023-09-19T05:06:22;3.63;;;1.80;;
77888;SDS011;67082;41.704;44.768;2023-09-19T05:08:50;2.90;;;1.70;;
77888;SDS011;67082;41.704;44.768;2023-09-19T05:11:20;7.00;;;1.80;;
77888;SDS011;67082;41.704;44.768;2023-09-19T05:13:49;5.85;;;1.83;;
77888;SDS011;67082;41.704;44.768;2023-09-19T05:16:18;4.45;;;1.77;;
77888;SDS011;67082;41.704;44.768;2023-09-19T05:18:46;2.88;;;1.88;;
77888;SDS011;67082;41.704;44.768;2023-09-19T05:21:15;4.25;;;1.67;;
77888;SDS011;67082;41.704;44.768;2023-09-19T05:23:44;4.75;;;1.90;;
77888;SDS011;67082;41.704;44.768;2023-09-19T05:26:13;4.05;;;2.03;;
77888;SDS011;67082;41.704;44.768;2023-09-19T05:28:44;4.28;;;2.00;;
77888;SDS011;67082;41.704;44.768;2023-09-19T05:31:12;4.65;;;1.88;;
77888;SDS011;67082;41.704;44.768;2023-09-19T05:33:40;4.35;;;1.92;;
77888;SDS011;67082;41.704;44.768;2023-09-19T05:36:08;3.85;;;2.05;;
77888;SDS011;67082;41.704;44.768;2023-09-19T05:38:40;4.75;;;2.25;;
77888;SDS011;67082;41.704;44.768;2023-09-19T05:41:10;4.00;;;2.22;;
77888;SDS011;67082;41.704;44.768;2023-09-19T05:43:41;10.50;;;2.30;;
77888;SDS011;67082;41.704;44.768;2023-09-19T05:46:10;5.15;;;1.92;;
77888;SDS011;67082;41.704;44.768;2023-09-19T05:48:39;6.32;;;2.25;;
77888;SDS011;67082;41.704;44.768;2023-09-19T05:51:08;5.75;;;2.20;;
77888;SDS011;67082;41.704;44.768;2023-09-19T05:53:37;5.00;;;2.13;;
77888;SDS011;67082;41.704;44.768;2023-09-19T05:56:06;4.82;;;2.20;;
77888;SDS011;67082;41.704;44.768;2023-09-19T05:58:34;3.53;;;2.00;;
77888;SDS011;67082;41.704;44.768;2023-09-19T06:01:02;4.05;;;2.20;;
77888;SDS011;67082;41.704;44.768;2023-09-19T06:03:31;8.25;;;2.08;;
77888;SDS011;67082;41.704;44.768;2023-09-19T06:05:59;5.50;;;2.58;;
77888;SDS011;67082;41.704;44.768;2023-09-19T06:08:28;4.05;;;2.25;;
77888;SDS011;67082;41.704;44.768;2023-09-19T06:10:56;5.72;;;1.98;;
77888;SDS011;67082;41.704;44.768;2023-09-19T06:13:24;6.47;;;2.17;;
77888;SDS011;67082;41.704;44.768;2023-09-19T06:15:55;4.30;;;2.00;;
77888;SDS011;67082;41.704;44.768;2023-09-19T06:18:31;3.72;;;2.22;;
77888;SDS011;67082;41.704;44.768;2023-09-19T06:21:01;5.05;;;2.13;;
77888;SDS011;67082;41.704;44.768;2023-09-19T06:23:35;7.78;;;2.83;;
77888;SDS011;67082;41.704;44.768;2023-09-19T06:26:03;6.53;;;2.35;;
77888;SDS011;67082;41.704;44.768;2023-09-19T06:28:34;4.47;;;2.10;;
77888;SDS011;67082;41.704;44.768;2023-09-19T06:31:02;6.68;;;2.15;;
77888;SDS011;67082;41.704;44.768;2023-09-19T06:33:30;8.30;;;2.17;;
77888;SDS011;67082;41.704;44.768;2023-09-19T06:35:59;4.43;;;2.00;;
77888;SDS011;67082;41.704;44.768;2023-09-19T06:38:27;5.85;;;2.30;;
77888;SDS011;67082;41.704;44.768;2023-09-19T06:40:56;5.60;;;2.00;;
77888;SDS011;67082;41.704;44.768;2023-09-19T06:43:24;4.72;;;2.30;;
77888;SDS011;67082;41.704;44.768;2023-09-19T06:45:53;4.75;;;2.17;;
77888;SDS011;67082;41.704;44.768;2023-09-19T06:48:22;5.03;;;2.10;;
77888;SDS011;67082;41.704;44.768;2023-09-19T06:50:53;3.95;;;2.00;;
77888;SDS011;67082;41.704;44.768;2023-09-19T06:53:22;4.88;;;1.70;;
77888;SDS011;67082;41.704;44.768;2023-09-19T06:55:51;3.83;;;2.10;;
77888;SDS011;67082;41.704;44.768;2023-09-19T06:58:38;4.72;;;1.90;;
77888;SDS011;67082;41.704;44.768;2023-09-19T07:01:06;6.30;;;2.15;;
77888;SDS011;67082;41.704;44.768;2023-09-19T07:03:34;5.53;;;2.20;;
77888;SDS011;67082;41.704;44.768;2023-09-19T07:06:05;3.40;;;1.63;;
77888;SDS011;67082;41.704;44.768;2023-09-19T07:08:33;3.50;;;2.00;;
77888;SDS011;67082;41.704;44.768;2023-09-19T07:11:01;2.85;;;1.60;;
77888;SDS011;67082;41.704;44.768;2023-09-19T07:13:29;5.28;;;2.00;;
77888;SDS011;67082;41.704;44.768;2023-09-19T07:15:58;3.13;;;1.80;;
77888;SDS011;67082;41.704;44.768;2023-09-19T07:18:27;4.93;;;2.00;;
77888;SDS011;67082;41.704;44.768;2023-09-19T07:20:56;4.05;;;1.75;;
77888;SDS011;67082;41.704;44.768;2023-09-19T07:23:28;3.75;;;2.00;;
77888;SDS011;67082;41.704;44.768;2023-09-19T07:25:57;3.40;;;1.60;;
77888;SDS011;67082;41.704;44.768;2023-09-19T07:28:27;3.67;;;1.83;;
77888;SDS011;67082;41.704;44.768;2023-09-19T07:30:56;4.60;;;1.60;;
77888;SDS011;67082;41.704;44.768;2023-09-19T07:33:24;5.20;;;1.60;;
77888;SDS011;67082;41.704;44.768;2023-09-19T07:35:54;3.30;;;1.65;;
77888;SDS011;67082;41.704;44.768;2023-09-19T07:38:22;4.55;;;1.85;;
77888;SDS011;67082;41.704;44.768;2023-09-19T07:40:53;4.03;;;1.75;;
77888;SDS011;67082;41.704;44.768;2023-09-19T07:43:21;3.40;;;1.65;;
77888;SDS011;67082;41.704;44.768;2023-09-19T07:45:49;4.63;;;1.63;;
77888;SDS011;67082;41.704;44.768;2023-09-19T07:48:20;4.32;;;1.70;;
77888;SDS011;67082;41.704;44.768;2023-09-19T07:50:54;5.40;;;1.90;;
77888;SDS011;67082;41.704;44.768;2023-09-19T07:53:22;5.32;;;1.90;;
77888;SDS011;67082;41.704;44.768;2023-09-19T07:55:51;3.63;;;1.95;;
77888;SDS011;67082;41.704;44.768;2023-09-19T07:58:23;5.50;;;1.83;;
77888;SDS011;67082;41.704;44.768;2023-09-19T08:00:51;5.97;;;1.90;;
77888;SDS011;67082;41.704;44.768;2023-09-19T08:03:19;4.03;;;1.90;;
77888;SDS011;67082;41.704;44.768;2023-09-19T08:05:48;3.42;;;1.60;;
77888;SDS011;67082;41.704;44.768;2023-09-19T08:08:16;6.35;;;1.75;;
77888;SDS011;67082;41.704;44.768;2023-09-19T08:10:45;7.25;;;2.40;;
77888;SDS011;67082;41.704;44.768;2023-09-19T08:13:16;5.43;;;2.10;;
77888;SDS011;67082;41.704;44.768;2023-09-19T08:15:46;4.13;;;1.85;;
77888;SDS011;67082;41.704;44.768;2023-09-19T08:18:15;3.65;;;1.88;;
77888;SDS011;67082;41.704;44.768;2023-09-19T08:20:50;5.10;;;2.00;;
77888;SDS011;67082;41.704;44.768;2023-09-19T08:23:19;4.07;;;1.85;;
77888;SDS011;67082;41.704;44.768;2023-09-19T08:25:48;3.50;;;1.83;;
77888;SDS011;67082;41.704;44.768;2023-09-19T08:28:16;4.38;;;1.88;;
77888;SDS011;67082;41.704;44.768;2023-09-19T08:30:52;5.45;;;1.90;;
77888;SDS011;67082;41.704;44.768;2023-09-19T08:33:24;3.22;;;1.70;;
77888;SDS011;67082;41.704;44.768;2023-09-19T08:35:55;7.45;;;2.22;;
77888;SDS011;67082;41.704;44.768;2023-09-19T08:38:24;8.75;;;2.17;;
77888;SDS011;67082;41.704;44.768;2023-09-19T08:41:04;4.50;;;2.30;;
77888;SDS011;67082;41.704;44.768;2023-09-19T08:46:15;6.63;;;1.98;;
77888;SDS011;67082;41.704;44.768;2023-09-19T08:48:45;5.03;;;1.98;;
77888;SDS011;67082;41.704;44.768;2023-09-19T08:54:24;5.15;;;2.35;;
77888;SDS011;67082;41.704;44.768;2023-09-19T08:57:00;6.72;;;2.30;;
77888;SDS011;67082;41.704;44.768;2023-09-19T08:59:44;5.15;;;2.42;;
77888;SDS011;67082;41.704;44.768;2023-09-19T09:02:16;5.03;;;1.85;;
77888;SDS011;67082;41.704;44.768;2023-09-19T09:04:46;5.18;;;2.10;;
77888;SDS011;67082;41.704;44.768;2023-09-19T09:07:17;8.95;;;2.20;;
77888;SDS011;67082;41.704;44.768;2023-09-19T09:09:46;14.20;;;2.10;;
77888;SDS011;67082;41.704;44.768;2023-09-19T09:12:18;6.53;;;2.03;;
77888;SDS011;67082;41.704;44.768;2023-09-19T09:14:47;7.10;;;2.10;;
77888;SDS011;67082;41.704;44.768;2023-09-19T09:17:21;5.32;;;2.00;;
77888;SDS011;67082;41.704;44.768;2023-09-19T09:19:51;3.70;;;1.85;;
77888;SDS011;67082;41.704;44.768;2023-09-19T09:22:30;5.82;;;2.10;;
77888;SDS011;67082;41.704;44.768;2023-09-19T09:25:00;11.20;;;2.60;;
77888;SDS011;67082;41.704;44.768;2023-09-19T09:27:36;6.07;;;1.95;;
77888;SDS011;67082;41.704;44.768;2023-09-19T09:30:04;5.70;;;1.88;;
77888;SDS011;67082;41.704;44.768;2023-09-19T09:32:35;4.28;;;1.75;;
77888;SDS011;67082;41.704;44.768;2023-09-19T09:35:12;5.45;;;2.10;;
77888;SDS011;67082;41.704;44.768;2023-09-19T09:37:42;4.68;;;2.15;;
77888;SDS011;67082;41.704;44.768;2023-09-19T09:40:11;6.18;;;2.60;;
77888;SDS011;67082;41.704;44.768;2023-09-19T09:42:42;5.53;;;2.45;;
77888;SDS011;67082;41.704;44.768;2023-09-19T09:45:24;4.70;;;2.20;;
77888;SDS011;67082;41.704;44.768;2023-09-19T09:48:01;4.75;;;1.80;;
77888;SDS011;67082;41.704;44.768;2023-09-19T09:50:46;4.68;;;2.15;;
77888;SDS011;67082;41.704;44.768;2023-09-19T09:53:27;6.15;;;2.33;;
77888;SDS011;67082;41.704;44.768;2023-09-19T09:56:05;12.63;;;3.03;;
77888;SDS011;67082;41.704;44.768;2023-09-19T09:58:48;4.50;;;2.20;;
77888;SDS011;67082;41.704;44.768;2023-09-19T10:01:23;4.38;;;1.70;;
77888;SDS011;67082;41.704;44.768;2023-09-19T10:03:57;6.07;;;2.10;;
77888;SDS011;67082;41.704;44.768;2023-09-19T10:06:39;4.82;;;1.90;;
77888;SDS011;67082;41.704;44.768;2023-09-19T10:09:15;4.43;;;2.10;;
77888;SDS011;67082;41.704;44.768;2023-09-19T10:12:02;4.57;;;1.90;;
77888;SDS011;67082;41.704;44.768;2023-09-19T10:14:36;4.32;;;1.77;;
77888;SDS011;67082;41.704;44.768;2023-09-19T10:17:05;3.67;;;1.90;;
77888;SDS011;67082;41.704;44.768;2023-09-19T10:19:41;3.65;;;1.90;;
77888;SDS011;67082;41.704;44.768;2023-09-19T10:22:14;4.25;;;1.90;;
77888;SDS011;67082;41.704;44.768;2023-09-19T10:24:55;3.38;;;1.70;;
77888;SDS011;67082;41.704;44.768;2023-09-19T10:27:30;5.70;;;1.60;;
77888;SDS011;67082;41.704;44.768;2023-09-19T10:30:06;3.10;;;1.70;;
77888;SDS011;67082;41.704;44.768;2023-09-19T10:32:36;4.03;;;2.13;;
77888;SDS011;67082;41.704;44.768;2023-09-19T10:35:09;4.45;;;2.95;;
77888;SDS011;67082;41.704;44.768;2023-09-19T10:37:40;3.45;;;2.17;;
77888;SDS011;67082;41.704;44.768;2023-09-19T10:40:12;4.97;;;1.70;;
77888;SDS011;67082;41.704;44.768;2023-09-19T10:42:46;7.38;;;2.00;;
77888;SDS011;67082;41.704;44.768;2023-09-19T10:45:18;4.70;;;1.80;;
77888;SDS011;67082;41.704;44.768;2023-09-19T10:47:51;3.60;;;1.85;;
77888;SDS011;67082;41.704;44.768;2023-09-19T10:50:20;6.35;;;1.80;;
77888;SDS011;67082;41.704;44.768;2023-09-19T10:52:53;4.72;;;1.80;;
77888;SDS011;67082;41.704;44.768;2023-09-19T10:55:35;4.40;;;2.00;;
77888;SDS011;67082;41.704;44.768;2023-09-19T10:58:07;3.13;;;2.10;;
77888;SDS011;67082;41.704;44.768;2023-09-19T11:01:01;4.40;;;2.22;;
77888;SDS011;67082;41.704;44.768;2023-09-19T11:03:35;4.20;;;2.10;;
77888;SDS011;67082;41.704;44.768;2023-09-19T11:06:15;7.55;;;1.80;;
77888;SDS011;67082;41.704;44.768;2023-09-19T11:08:56;4.82;;;1.90;;
77888;SDS011;67082;41.704;44.768;2023-09-19T11:30:40;3.83;;;1.90;;
77888;SDS011;67082;41.704;44.768;2023-09-19T11:33:21;3.90;;;2.15;;
77888;SDS011;67082;41.704;44.768;2023-09-19T11:36:04;5.38;;;1.70;;
77888;SDS011;67082;41.704;44.768;2023-09-19T11:46:34;3.40;;;1.92;;
77888;SDS011;67082;41.704;44.768;2023-09-19T11:49:27;4.40;;;1.90;;
77888;SDS011;67082;41.704;44.768;2023-09-19T11:52:02;3.20;;;1.85;;
77888;SDS011;67082;41.704;44.768;2023-09-19T11:54:36;2.47;;;1.30;;
77888;SDS011;67082;41.704;44.768;2023-09-19T11:57:10;2.97;;;1.70;;
77888;SDS011;67082;41.704;44.768;2023-09-19T11:59:40;3.85;;;1.60;;
77888;SDS011;67082;41.704;44.768;2023-09-19T12:02:08;3.10;;;1.83;;
77888;SDS011;67082;41.704;44.768;2023-09-19T12:04:46;3.97;;;1.92;;
77888;SDS011;67082;41.704;44.768;2023-09-19T12:07:17;5.30;;;2.10;;
77888;SDS011;67082;41.704;44.768;2023-09-19T12:10:20;4.15;;;2.05;;
77888;SDS011;67082;41.704;44.768;2023-09-19T12:12:47;6.57;;;1.90;;
77888;SDS011;67082;41.704;44.768;2023-09-19T12:15:22;4.05;;;2.00;;
77888;SDS011;67082;41.704;44.768;2023-09-19T12:17:56;3.70;;;1.80;;
77888;SDS011;67082;41.704;44.768;2023-09-19T12:20:25;3.88;;;1.88;;
77888;SDS011;67082;41.704;44.768;2023-09-19T12:23:13;2.92;;;1.83;;
77888;SDS011;67082;41.704;44.768;2023-09-19T12:25:43;6.35;;;2.10;;
77888;SDS011;67082;41.704;44.768;2023-09-19T12:28:15;2.97;;;1.67;;
77888;SDS011;67082;41.704;44.768;2023-09-19T12:30:44;4.50;;;1.60;;
77888;SDS011;67082;41.704;44.768;2023-09-19T12:33:19;2.65;;;1.60;;
77888;SDS011;67082;41.704;44.768;2023-09-19T12:35:49;3.58;;;2.25;;
77888;SDS011;67082;41.704;44.768;2023-09-19T12:38:26;3.22;;;1.65;;
77888;SDS011;67082;41.704;44.768;2023-09-19T12:41:03;5.18;;;1.70;;
77888;SDS011;67082;41.704;44.768;2023-09-19T12:43:31;3.97;;;2.10;;
77888;SDS011;67082;41.704;44.768;2023-09-19T12:46:02;2.60;;;1.77;;
77888;SDS011;67082;41.704;44.768;2023-09-19T12:48:32;3.25;;;1.58;;
77888;SDS011;67082;41.704;44.768;2023-09-19T12:51:07;3.08;;;1.75;;
77888;SDS011;67082;41.704;44.768;2023-09-19T12:56:12;4.07;;;1.70;;
77888;SDS011;67082;41.704;44.768;2023-09-19T12:58:48;2.75;;;1.77;;
77888;SDS011;67082;41.704;44.768;2023-09-19T13:01:25;3.92;;;1.92;;
77888;SDS011;67082;41.704;44.768;2023-09-19T13:06:54;2.75;;;1.63;;
77888;SDS011;67082;41.704;44.768;2023-09-19T13:09:22;3.40;;;1.90;;
77888;SDS011;67082;41.704;44.768;2023-09-19T13:12:03;4.55;;;2.20;;
77888;SDS011;67082;41.704;44.768;2023-09-19T13:14:34;5.38;;;1.90;;
77888;SDS011;67082;41.704;44.768;2023-09-19T13:17:08;3.92;;;2.03;;
77888;SDS011;67082;41.704;44.768;2023-09-19T13:19:45;7.30;;;2.50;;
77888;SDS011;67082;41.704;44.768;2023-09-19T13:25:14;4.75;;;2.10;;
77888;SDS011;67082;41.704;44.768;2023-09-19T13:27:53;6.07;;;2.15;;
77888;SDS011;67082;41.704;44.768;2023-09-19T13:30:27;3.38;;;2.15;;
77888;SDS011;67082;41.704;44.768;2023-09-19T13:33:05;4.07;;;2.10;;
77888;SDS011;67082;41.704;44.768;2023-09-19T13:35:35;3.65;;;2.10;;
77888;SDS011;67082;41.704;44.768;2023-09-19T13:38:06;5.15;;;2.80;;
77888;SDS011;67082;41.704;44.768;2023-09-19T13:40:39;6.00;;;2.33;;
77888;SDS011;67082;41.704;44.768;2023-09-19T13:43:10;3.60;;;1.95;;
77888;SDS011;67082;41.704;44.768;2023-09-19T13:45:41;3.72;;;2.20;;
77888;SDS011;67082;41.704;44.768;2023-09-19T13:48:10;4.38;;;2.13;;
77888;SDS011;67082;41.704;44.768;2023-09-19T13:50:40;4.40;;;2.60;;
77888;SDS011;67082;41.704;44.768;2023-09-19T13:53:11;4.15;;;2.15;;
77888;SDS011;67082;41.704;44.768;2023-09-19T13:55:39;5.50;;;2.42;;
77888;SDS011;67082;41.704;44.768;2023-09-19T13:58:08;3.45;;;2.20;;
77888;SDS011;67082;41.704;44.768;2023-09-19T14:00:38;6.03;;;2.65;;
77888;SDS011;67082;41.704;44.768;2023-09-19T14:03:06;5.15;;;2.60;;
77888;SDS011;67082;41.704;44.768;2023-09-19T14:05:35;6.53;;;2.53;;
77888;SDS011;67082;41.704;44.768;2023-09-19T14:08:04;4.82;;;2.72;;
77888;SDS011;67082;41.704;44.768;2023-09-19T14:10:32;3.30;;;2.35;;
77888;SDS011;67082;41.704;44.768;2023-09-19T14:13:01;4.93;;;2.70;;
77888;SDS011;67082;41.704;44.768;2023-09-19T14:15:29;7.40;;;3.13;;
77888;SDS011;67082;41.704;44.768;2023-09-19T14:17:58;4.13;;;2.17;;
77888;SDS011;67082;41.704;44.768;2023-09-19T14:20:28;5.20;;;2.65;;
77888;SDS011;67082;41.704;44.768;2023-09-19T14:23:01;4.60;;;2.88;;
77888;SDS011;67082;41.704;44.768;2023-09-19T14:25:29;6.82;;;3.15;;
77888;SDS011;67082;41.704;44.768;2023-09-19T14:27:58;6.30;;;2.85;;
77888;SDS011;67082;41.704;44.768;2023-09-19T14:30:26;6.47;;;2.58;;
77888;SDS011;67082;41.704;44.768;2023-09-19T14:32:56;6.35;;;2.88;;
77888;SDS011;67082;41.704;44.768;2023-09-19T14:35:25;8.30;;;2.67;;
77888;SDS011;67082;41.704;44.768;2023-09-19T14:37:54;4.88;;;2.67;;
77888;SDS011;67082;41.704;44.768;2023-09-19T14:40:22;4.47;;;2.80;;
77888;SDS011;67082;41.704;44.768;2023-09-19T14:42:51;9.65;;;2.92;;
77888;SDS011;67082;41.704;44.768;2023-09-19T14:45:19;8.38;;;4.00;;
77888;SDS011;67082;41.704;44.768;2023-09-19T14:47:48;7.78;;;3.67;;
77888;SDS011;67082;41.704;44.768;2023-09-19T14:50:20;5.93;;;2.90;;
77888;SDS011;67082;41.704;44.768;2023-09-19T14:52:50;9.43;;;3.53;;
77888;SDS011;67082;41.704;44.768;2023-09-19T14:55:19;8.35;;;3.92;;
77888;SDS011;67082;41.704;44.768;2023-09-19T14:57:50;6.68;;;3.70;;
77888;SDS011;67082;41.704;44.768;2023-09-19T15:00:19;8.25;;;4.20;;
77888;SDS011;67082;41.704;44.768;2023-09-19T15:02:49;8.43;;;4.15;;
77888;SDS011;67082;41.704;44.768;2023-09-19T15:05:18;7.32;;;3.65;;
77888;SDS011;67082;41.704;44.768;2023-09-19T15:07:47;6.15;;;3.25;;
77888;SDS011;67082;41.704;44.768;2023-09-19T15:10:17;7.35;;;3.38;;
77888;SDS011;67082;41.704;44.768;2023-09-19T15:12:46;9.68;;;3.30;;
77888;SDS011;67082;41.704;44.768;2023-09-19T15:15:14;6.97;;;3.35;;
77888;SDS011;67082;41.704;44.768;2023-09-19T15:17:43;5.93;;;3.42;;
77888;SDS011;67082;41.704;44.768;2023-09-19T15:20:11;6.60;;;3.60;;
77888;SDS011;67082;41.704;44.768;2023-09-19T15:22:41;6.43;;;3.17;;
77888;SDS011;67082;41.704;44.768;2023-09-19T15:25:10;7.45;;;3.72;;
77888;SDS011;67082;41.704;44.768;2023-09-19T15:27:39;6.68;;;3.42;;
77888;SDS011;67082;41.704;44.768;2023-09-19T15:30:09;8.20;;;3.03;;
77888;SDS011;67082;41.704;44.768;2023-09-19T15:32:38;6.72;;;2.83;;
77888;SDS011;67082;41.704;44.768;2023-09-19T15:35:07;6.43;;;3.15;;
77888;SDS011;67082;41.704;44.768;2023-09-19T15:37:39;9.50;;;3.50;;
77888;SDS011;67082;41.704;44.768;2023-09-19T15:40:08;7.25;;;4.38;;
77888;SDS011;67082;41.704;44.768;2023-09-19T15:42:39;7.13;;;3.13;;
77888;SDS011;67082;41.704;44.768;2023-09-19T15:45:07;9.02;;;3.83;;
77888;SDS011;67082;41.704;44.768;2023-09-19T15:47:37;10.45;;;3.47;;
77888;SDS011;67082;41.704;44.768;2023-09-19T15:50:06;6.20;;;3.25;;
77888;SDS011;67082;41.704;44.768;2023-09-19T15:52:37;6.85;;;3.35;;
77888;SDS011;67082;41.704;44.768;2023-09-19T15:55:05;9.32;;;3.53;;